createdAt,value
2018-12-24T00:00:52.689Z,99.90
2018-12-24T00:03:23.228Z,99.90
2018-12-24T00:05:54.064Z,99.90
2018-12-24T00:08:24.829Z,99.90
2018-12-24T00:10:57.241Z,99.90
2018-12-24T00:13:28.049Z,99.90
2018-12-24T00:15:59.136Z,99.90
2018-12-24T00:18:30.033Z,99.90
2018-12-24T00:21:00.664Z,99.90
2018-12-24T00:23:31.768Z,99.90
2018-12-24T00:26:02.546Z,99.90
2018-12-24T00:28:33.205Z,99.90
2018-12-24T00:31:04.112Z,99.90
2018-12-24T00:33:35.300Z,99.90
2018-12-24T00:36:06.581Z,99.90
2018-12-24T00:38:37.561Z,99.90
2018-12-24T00:41:08.508Z,99.90
2018-12-24T00:43:39.568Z,99.90
2018-12-24T00:46:10.738Z,99.90
2018-12-24T00:48:41.863Z,99.90
2018-12-24T00:51:12.962Z,99.90
2018-12-24T00:53:43.700Z,99.90
2018-12-24T00:56:14.212Z,99.90
2018-12-24T00:58:45.282Z,99.90
2018-12-24T01:01:16.313Z,99.90
2018-12-24T01:03:47.508Z,99.90
2018-12-24T01:06:18.309Z,99.90
2018-12-24T01:08:49.173Z,99.90
2018-12-24T01:11:19.938Z,99.90
2018-12-24T01:13:50.681Z,99.90
2018-12-24T01:16:21.649Z,99.90
2018-12-24T01:18:52.349Z,99.90
2018-12-24T01:21:22.874Z,99.90
2018-12-24T01:23:54.207Z,99.90
2018-12-24T01:26:25.775Z,99.90
2018-12-24T01:28:56.536Z,99.90
2018-12-24T01:31:27.136Z,99.90
2018-12-24T01:33:58.016Z,99.90
2018-12-24T01:36:29.057Z,99.90
2018-12-24T01:38:59.782Z,99.90
2018-12-24T01:41:30.728Z,99.90
2018-12-24T01:44:01.800Z,99.90
2018-12-24T01:46:32.460Z,99.90
2018-12-24T01:49:03.458Z,99.90
2018-12-24T01:51:34.591Z,99.90
2018-12-24T01:54:05.796Z,99.90
2018-12-24T01:56:36.880Z,99.90
2018-12-24T01:59:07.656Z,99.90
2018-12-24T02:01:38.471Z,99.90
2018-12-24T02:04:09.288Z,99.90
2018-12-24T02:06:40.163Z,99.90
2018-12-24T02:09:11.057Z,99.90
2018-12-24T02:11:41.841Z,99.90
2018-12-24T02:14:12.581Z,99.90
2018-12-24T02:16:43.597Z,99.90
2018-12-24T02:19:14.840Z,99.90
2018-12-24T02:22:12.653Z,99.90
2018-12-24T02:24:36.853Z,99.90
2018-12-24T02:27:07.850Z,99.90
2018-12-24T02:29:38.516Z,99.90
2018-12-24T02:32:09.635Z,99.90
2018-12-24T02:34:40.191Z,99.90
2018-12-24T02:37:10.994Z,99.90
2018-12-24T02:39:43.303Z,99.90
2018-12-24T02:42:14.412Z,99.90
2018-12-24T02:44:45.549Z,99.90
2018-12-24T02:47:16.272Z,99.90
2018-12-24T02:49:49.037Z,99.90
2018-12-24T02:52:20.899Z,99.90
2018-12-24T02:54:51.495Z,99.90
2018-12-24T02:57:22.617Z,99.90
2018-12-24T02:59:53.477Z,99.90
2018-12-24T03:02:24.562Z,99.90
2018-12-24T03:04:55.281Z,99.90
2018-12-24T03:07:26.022Z,99.90
2018-12-24T03:09:56.966Z,99.90
2018-12-24T03:12:27.766Z,99.90
2018-12-24T03:14:58.729Z,99.90
2018-12-24T03:17:29.805Z,99.90
2018-12-24T03:20:00.522Z,99.90
2018-12-24T03:22:31.348Z,99.90
2018-12-24T03:25:02.740Z,99.90
2018-12-24T03:27:33.373Z,99.90
2018-12-24T03:30:04.274Z,99.90
2018-12-24T03:32:34.974Z,99.90
2018-12-24T03:35:06.033Z,99.90
2018-12-24T03:37:37.112Z,99.90
2018-12-24T03:40:07.937Z,99.90
2018-12-24T03:42:39.109Z,99.90
2018-12-24T03:45:09.812Z,99.90
2018-12-24T03:47:41.078Z,99.90
2018-12-24T03:50:11.689Z,99.90
2018-12-24T03:52:42.448Z,99.90
2018-12-24T03:55:13.565Z,99.90
2018-12-24T03:57:44.609Z,99.90
2018-12-24T04:00:15.370Z,99.90
2018-12-24T04:02:46.080Z,99.90
2018-12-24T04:05:18.235Z,99.90
2018-12-24T04:07:49.194Z,99.90
2018-12-24T04:10:19.689Z,99.90
2018-12-24T04:12:50.693Z,99.90
2018-12-24T04:15:21.593Z,99.90
2018-12-24T04:17:52.464Z,99.90
2018-12-24T04:20:23.391Z,99.90
2018-12-24T04:22:54.412Z,99.90
2018-12-24T04:25:25.555Z,99.90
2018-12-24T04:27:56.465Z,99.90
2018-12-24T04:30:38.385Z,99.90
2018-12-24T04:33:10.468Z,99.90
2018-12-24T04:35:41.195Z,99.90
2018-12-24T04:38:12.286Z,99.90
2018-12-24T04:40:43.075Z,99.90
2018-12-24T04:43:14.033Z,99.90
2018-12-24T04:45:45.946Z,99.90
2018-12-24T04:48:17.122Z,99.90
2018-12-24T04:50:47.900Z,99.90
2018-12-24T04:53:18.693Z,99.90
2018-12-24T04:55:49.726Z,99.90
2018-12-24T04:58:20.366Z,99.90
2018-12-24T05:00:53.153Z,99.90
2018-12-24T05:03:23.844Z,99.90
2018-12-24T05:05:54.562Z,99.90
2018-12-24T05:08:25.665Z,99.90
2018-12-24T05:10:56.395Z,99.90
2018-12-24T05:13:27.274Z,99.90
2018-12-24T05:15:58.645Z,99.90
2018-12-24T05:18:29.441Z,99.90
2018-12-24T05:21:00.064Z,99.90
2018-12-24T05:23:30.880Z,99.90
2018-12-24T05:26:02.137Z,99.90
2018-12-24T05:28:34.067Z,99.90
2018-12-24T05:31:06.685Z,99.90
2018-12-24T05:33:37.286Z,99.90
2018-12-24T05:36:08.257Z,99.90
2018-12-24T05:38:39.385Z,99.90
2018-12-24T05:41:10.168Z,99.90
2018-12-24T05:43:49.225Z,99.90
2018-12-24T05:46:13.744Z,99.90
2018-12-24T05:48:44.661Z,99.90
2018-12-24T05:51:15.616Z,99.90
2018-12-24T05:53:46.385Z,99.90
2018-12-24T05:56:17.717Z,99.90
2018-12-24T05:58:50.263Z,99.90
2018-12-24T06:01:21.027Z,99.90
2018-12-24T06:03:51.725Z,99.90
2018-12-24T06:06:22.902Z,99.90
2018-12-24T06:08:53.887Z,99.90
2018-12-24T06:11:24.569Z,99.90
2018-12-24T06:13:58.113Z,99.90
2018-12-24T06:16:29.321Z,99.90
2018-12-24T06:19:00.465Z,99.90
2018-12-24T06:21:46.544Z,99.90
2018-12-24T06:24:29.846Z,99.90
2018-12-24T06:27:12.490Z,99.90
2018-12-24T06:29:47.057Z,99.90
2018-12-24T06:32:28.885Z,99.90
2018-12-24T06:35:01.706Z,99.90
2018-12-24T06:37:37.906Z,99.90
2018-12-24T06:40:09.812Z,99.90
2018-12-24T06:42:46.274Z,99.90
2018-12-24T06:45:18.773Z,99.90
2018-12-24T06:47:49.705Z,99.90
2018-12-24T06:50:20.437Z,99.90
2018-12-24T06:52:51.377Z,99.90
2018-12-24T06:55:23.194Z,99.90
2018-12-24T06:57:53.884Z,99.90
2018-12-24T07:00:25.173Z,99.90
2018-12-24T07:02:55.841Z,99.90
2018-12-24T07:05:26.790Z,99.90
2018-12-24T07:07:57.932Z,99.90
2018-12-24T07:10:28.909Z,99.90
2018-12-24T07:12:59.931Z,99.90
2018-12-24T07:15:30.906Z,99.90
2018-12-24T07:18:01.525Z,99.90
2018-12-24T07:20:32.572Z,99.90
2018-12-24T07:23:03.177Z,99.90
2018-12-24T07:25:33.909Z,99.90
2018-12-24T07:28:04.737Z,99.90
2018-12-24T07:30:35.432Z,99.90
2018-12-24T07:33:06.243Z,99.90
2018-12-24T07:35:36.757Z,99.90
2018-12-24T07:38:08.065Z,99.90
2018-12-24T07:40:38.717Z,99.90
2018-12-24T07:43:09.765Z,99.90
2018-12-24T07:45:40.421Z,99.90
2018-12-24T07:48:11.443Z,99.90
2018-12-24T07:50:42.119Z,99.90
2018-12-24T07:53:13.309Z,99.90
2018-12-24T07:55:44.768Z,99.90
2018-12-24T07:58:15.525Z,99.90
2018-12-24T08:00:46.220Z,99.90
2018-12-24T08:03:17.056Z,99.80
2018-12-24T08:05:47.876Z,99.90
2018-12-24T08:08:18.507Z,99.60
2018-12-24T08:10:49.498Z,99.90
2018-12-24T08:13:32.039Z,99.60
2018-12-24T08:16:03.192Z,99.30
2018-12-24T08:18:33.830Z,99.60
2018-12-24T08:21:05.178Z,99.60
2018-12-24T08:23:35.882Z,99.30
2018-12-24T08:26:07.107Z,99.90
2018-12-24T08:28:38.954Z,99.40
2018-12-24T08:31:09.905Z,99.50
2018-12-24T08:33:40.921Z,99.10
2018-12-24T08:36:11.987Z,99.20
2018-12-24T08:38:43.117Z,99.20
2018-12-24T08:41:14.099Z,99.10
2018-12-24T08:43:44.895Z,99.10
2018-12-24T08:46:15.784Z,98.50
2018-12-24T08:48:46.809Z,98.90
2018-12-24T08:51:17.482Z,98.70
2018-12-24T08:53:48.009Z,98.80
2018-12-24T08:56:19.025Z,99.00
2018-12-24T08:59:00.897Z,99.00
2018-12-24T09:01:32.076Z,98.80
2018-12-24T09:04:03.224Z,98.80
2018-12-24T09:06:34.329Z,98.10
2018-12-24T09:09:06.818Z,98.50
2018-12-24T09:11:37.843Z,98.20
2018-12-24T09:14:09.017Z,98.50
2018-12-24T09:16:40.210Z,98.20
2018-12-24T09:19:10.900Z,97.90
2018-12-24T09:21:41.591Z,97.60
2018-12-24T09:24:12.257Z,98.20
2018-12-24T09:26:43.275Z,97.80
2018-12-24T09:29:14.386Z,97.50
2018-12-24T09:31:45.006Z,97.30
2018-12-24T09:34:15.564Z,97.10
2018-12-24T09:36:46.404Z,97.10
2018-12-24T09:39:19.124Z,97.30
2018-12-24T09:41:49.965Z,97.10
2018-12-24T09:44:20.897Z,97.00
2018-12-24T09:46:51.626Z,96.50
2018-12-24T09:49:22.133Z,96.50
2018-12-24T09:51:53.221Z,97.10
2018-12-24T09:54:24.320Z,96.30
2018-12-24T09:56:55.377Z,96.40
2018-12-24T09:59:26.133Z,96.50
2018-12-24T10:01:56.916Z,96.50
2018-12-24T10:04:33.442Z,96.80
2018-12-24T10:07:27.379Z,96.50
2018-12-24T10:09:58.429Z,96.40
2018-12-24T10:12:29.208Z,96.90
2018-12-24T10:15:07.673Z,96.70
2018-12-24T10:17:32.777Z,96.80
2018-12-24T10:20:03.403Z,96.70
2018-12-24T10:22:34.322Z,96.40
2018-12-24T10:25:07.876Z,96.30
2018-12-24T10:27:39.027Z,96.10
2018-12-24T10:30:10.474Z,96.20
2018-12-24T10:32:41.134Z,96.40
2018-12-24T10:35:12.316Z,96.50
2018-12-24T10:37:43.533Z,96.40
2018-12-24T10:40:16.533Z,96.90
2018-12-24T10:42:47.541Z,97.10
2018-12-24T10:45:18.865Z,96.90
2018-12-24T10:47:49.896Z,96.30
2018-12-24T10:50:21.033Z,96.60
2018-12-24T10:52:51.848Z,96.30
2018-12-24T10:55:23.013Z,96.30
2018-12-24T10:57:54.166Z,96.30
2018-12-24T11:00:24.861Z,96.10
2018-12-24T11:02:55.872Z,96.30
2018-12-24T11:05:27.470Z,95.80
2018-12-24T11:07:58.892Z,96.20
2018-12-24T11:10:30.386Z,95.80
2018-12-24T11:13:01.688Z,96.40
2018-12-24T11:15:32.572Z,96.10
2018-12-24T11:18:03.636Z,96.40
2018-12-24T11:20:35.501Z,96.40
2018-12-24T11:23:06.478Z,96.20
2018-12-24T11:25:37.766Z,96.50
2018-12-24T11:28:08.425Z,96.30
2018-12-24T11:30:39.643Z,96.00
2018-12-24T11:33:10.860Z,96.10
2018-12-24T11:35:42.040Z,96.20
2018-12-24T11:38:12.970Z,96.40
2018-12-24T11:40:44.020Z,96.40
2018-12-24T11:43:15.182Z,96.00
2018-12-24T11:45:46.305Z,96.10
2018-12-24T11:48:18.304Z,95.80
2018-12-24T11:50:49.013Z,96.40
2018-12-24T11:53:20.025Z,96.20
2018-12-24T11:55:50.893Z,96.00
2018-12-24T11:58:21.543Z,95.90
2018-12-24T12:00:52.777Z,96.70
2018-12-24T12:03:24.129Z,96.50
2018-12-24T12:05:55.193Z,96.40
2018-12-24T12:08:26.272Z,96.10
2018-12-24T12:10:57.128Z,96.20
2018-12-24T12:13:28.312Z,96.00
2018-12-24T12:15:58.869Z,96.50
2018-12-24T12:18:29.433Z,96.40
2018-12-24T12:21:00.710Z,96.30
2018-12-24T12:23:31.418Z,95.90
2018-12-24T12:26:02.365Z,96.00
2018-12-24T12:28:34.511Z,96.00
2018-12-24T12:31:05.179Z,96.00
2018-12-24T12:33:36.133Z,96.20
2018-12-24T12:36:07.257Z,96.10
2018-12-24T12:38:38.392Z,96.00
2018-12-24T12:41:09.656Z,96.40
2018-12-24T12:43:40.580Z,96.00
2018-12-24T12:46:11.374Z,96.30
2018-12-24T12:48:42.318Z,96.10
2018-12-24T12:51:13.135Z,95.60
2018-12-24T12:53:44.171Z,95.80
2018-12-24T12:56:15.182Z,95.60
2018-12-24T12:58:45.825Z,96.00
2018-12-24T13:01:16.880Z,95.90
2018-12-24T13:03:48.072Z,96.20
2018-12-24T13:06:18.928Z,95.80
2018-12-24T13:08:49.555Z,96.00
2018-12-24T13:11:20.109Z,96.10
2018-12-24T13:13:51.069Z,95.90
2018-12-24T13:16:22.248Z,95.90
2018-12-24T13:18:52.944Z,95.90
2018-12-24T13:21:23.935Z,96.10
2018-12-24T13:23:54.789Z,95.90
2018-12-24T13:26:25.381Z,96.30
2018-12-24T13:28:56.124Z,96.10
2018-12-24T13:31:27.297Z,95.80
2018-12-24T13:33:57.938Z,96.10
2018-12-24T13:36:28.437Z,96.20
2018-12-24T13:38:59.217Z,96.10
2018-12-24T13:41:30.337Z,96.30
2018-12-24T13:44:01.013Z,95.90
2018-12-24T13:46:32.125Z,96.30
2018-12-24T13:49:03.403Z,96.20
2018-12-24T13:51:34.501Z,95.80
2018-12-24T13:54:05.473Z,96.00
2018-12-24T13:56:36.282Z,96.20
2018-12-24T13:59:07.082Z,95.90
2018-12-24T14:01:37.735Z,95.70
2018-12-24T14:04:08.737Z,95.90
2018-12-24T14:06:39.816Z,96.30
2018-12-24T14:09:10.888Z,96.40
2018-12-24T14:11:41.916Z,96.20
2018-12-24T14:14:12.777Z,96.30
2018-12-24T14:16:43.762Z,96.30
2018-12-24T14:19:14.723Z,96.10
2018-12-24T14:21:45.469Z,96.40
2018-12-24T14:24:16.413Z,96.60
2018-12-24T14:26:47.240Z,96.40
2018-12-24T14:29:17.914Z,96.40
2018-12-24T14:31:48.970Z,96.60
2018-12-24T14:34:19.728Z,96.60
2018-12-24T14:36:50.510Z,96.60
2018-12-24T14:39:21.359Z,96.50
2018-12-24T14:41:52.122Z,96.70
2018-12-24T14:44:23.305Z,96.70
2018-12-24T14:46:54.173Z,96.70
2018-12-24T14:49:24.899Z,96.70
2018-12-24T14:51:55.721Z,96.80
2018-12-24T14:54:26.632Z,96.60
2018-12-24T14:56:57.500Z,96.70
2018-12-24T14:59:28.772Z,96.80
2018-12-24T15:01:59.597Z,96.80
2018-12-24T15:04:30.225Z,97.10
2018-12-24T15:07:01.052Z,97.10
2018-12-24T15:09:32.145Z,97.10
2018-12-24T15:12:03.134Z,97.10
2018-12-24T15:14:33.905Z,97.30
2018-12-24T15:17:04.396Z,97.10
2018-12-24T15:19:35.334Z,97.00
2018-12-24T15:22:06.056Z,97.10
2018-12-24T15:24:37.067Z,97.40
2018-12-24T15:27:08.368Z,97.30
2018-12-24T15:29:39.209Z,97.50
2018-12-24T15:32:09.862Z,97.30
2018-12-24T15:34:40.553Z,97.20
2018-12-24T15:37:14.346Z,97.40
2018-12-24T15:39:45.470Z,97.40
2018-12-24T15:42:16.383Z,97.60
2018-12-24T15:44:47.107Z,97.60
2018-12-24T15:47:17.867Z,97.80
2018-12-24T15:49:48.649Z,97.40
2018-12-24T15:52:19.477Z,97.60
2018-12-24T15:54:50.463Z,97.80
2018-12-24T15:57:21.312Z,97.90
2018-12-24T15:59:52.424Z,97.80
2018-12-24T16:02:23.156Z,97.90
2018-12-24T16:04:54.037Z,98.00
2018-12-24T16:07:25.193Z,98.00
2018-12-24T16:09:56.104Z,98.20
2018-12-24T16:12:27.301Z,98.10
2018-12-24T16:14:58.419Z,98.20
2018-12-24T16:17:29.237Z,98.40
2018-12-24T16:20:00.171Z,98.60
2018-12-24T16:22:30.772Z,98.80
2018-12-24T16:25:01.712Z,99.00
2018-12-24T16:27:32.500Z,98.90
2018-12-24T16:30:03.710Z,99.10
2018-12-24T16:32:35.404Z,99.10
2018-12-24T16:35:06.618Z,99.20
2018-12-24T16:37:37.668Z,99.20
2018-12-24T16:40:08.473Z,99.20
2018-12-24T16:42:40.790Z,99.70
2018-12-24T16:45:12.004Z,99.40
2018-12-24T16:47:44.432Z,99.30
2018-12-24T16:50:15.428Z,99.60
2018-12-24T16:52:46.241Z,99.50
2018-12-24T16:55:17.085Z,99.60
2018-12-24T16:57:59.041Z,99.60
2018-12-24T17:00:29.737Z,99.40
2018-12-24T17:03:00.883Z,99.80
2018-12-24T17:05:31.564Z,99.80
2018-12-24T17:08:02.405Z,99.80
2018-12-24T17:10:35.211Z,99.90
2018-12-24T17:13:06.426Z,99.90
2018-12-24T17:15:37.205Z,99.90
2018-12-24T17:18:07.958Z,99.90
2018-12-24T17:20:39.164Z,99.90
2018-12-24T17:23:10.605Z,99.90
2018-12-24T17:25:41.335Z,99.90
2018-12-24T17:28:12.653Z,99.90
2018-12-24T17:30:43.360Z,99.90
2018-12-24T17:33:15.114Z,99.90
2018-12-24T17:35:45.848Z,99.90
2018-12-24T17:38:16.449Z,99.90
2018-12-24T17:40:47.545Z,99.90
2018-12-24T17:43:18.191Z,99.90
2018-12-24T17:45:48.960Z,99.90
2018-12-24T17:48:19.795Z,99.90
2018-12-24T17:50:50.630Z,99.90
2018-12-24T17:53:21.560Z,99.90
2018-12-24T17:55:52.611Z,99.90
2018-12-24T17:58:23.217Z,99.90
2018-12-24T18:00:54.036Z,99.90
2018-12-24T18:03:24.949Z,99.90
2018-12-24T18:05:55.917Z,99.90
2018-12-24T18:08:26.811Z,99.90
2018-12-24T18:10:57.321Z,99.90
2018-12-24T18:13:28.383Z,99.90
2018-12-24T18:15:59.285Z,99.90
2018-12-24T18:18:30.399Z,99.90
2018-12-24T18:21:01.420Z,99.90
2018-12-24T18:23:32.112Z,99.90
2018-12-24T18:26:04.937Z,99.90
2018-12-24T18:28:36.103Z,99.90
2018-12-24T18:31:07.267Z,99.90
2018-12-24T18:33:38.165Z,99.90
2018-12-24T18:36:09.418Z,99.90
2018-12-24T18:38:42.513Z,99.90
2018-12-24T18:41:13.236Z,99.90
2018-12-24T18:43:43.781Z,99.90
2018-12-24T18:46:14.280Z,99.90
2018-12-24T18:48:45.269Z,99.90
2018-12-24T18:51:16.432Z,99.90
2018-12-24T18:53:47.120Z,99.90
2018-12-24T18:56:18.150Z,99.90
2018-12-24T18:58:48.869Z,99.90
2018-12-24T19:01:20.060Z,99.90
2018-12-24T19:03:51.339Z,99.90
2018-12-24T19:06:22.715Z,99.90
2018-12-24T19:08:53.581Z,99.90
2018-12-24T19:11:24.459Z,99.90
2018-12-24T19:13:55.366Z,99.90
2018-12-24T19:16:26.343Z,99.90
2018-12-24T19:18:57.066Z,99.90
2018-12-24T19:21:28.308Z,99.90
2018-12-24T19:23:59.029Z,99.90
2018-12-24T19:26:30.598Z,99.90
2018-12-24T19:29:01.376Z,99.90
2018-12-24T19:31:32.169Z,99.90
2018-12-24T19:34:03.400Z,99.90
2018-12-24T19:36:34.514Z,99.90
2018-12-24T19:39:07.336Z,99.90
2018-12-24T19:41:38.457Z,99.90
2018-12-24T19:44:09.561Z,99.90
2018-12-24T19:46:40.405Z,99.90
2018-12-24T19:49:11.294Z,99.90
2018-12-24T19:51:41.861Z,99.90
2018-12-24T19:54:13.171Z,99.90
2018-12-24T19:56:43.827Z,99.90
2018-12-24T19:59:14.621Z,99.90
2018-12-24T20:01:45.856Z,99.90
2018-12-24T20:04:16.943Z,99.90
2018-12-24T20:06:47.962Z,99.90
2018-12-24T20:09:18.902Z,99.90
2018-12-24T20:11:49.575Z,99.90
2018-12-24T20:14:20.621Z,99.90
2018-12-24T20:16:51.162Z,99.90
2018-12-24T20:19:21.828Z,99.90
2018-12-24T20:21:52.538Z,99.90
2018-12-24T20:24:23.089Z,99.90
2018-12-24T20:26:53.593Z,99.90
2018-12-24T20:29:24.161Z,99.90
2018-12-24T20:31:55.226Z,99.90
2018-12-24T20:34:26.066Z,99.90
2018-12-24T20:36:56.925Z,99.90
2018-12-24T20:39:27.604Z,99.90
2018-12-24T20:41:58.732Z,99.90
2018-12-24T20:44:30.329Z,99.90
2018-12-24T20:47:00.924Z,99.90
2018-12-24T20:49:31.697Z,99.90
2018-12-24T20:52:04.403Z,99.90
2018-12-24T20:54:35.382Z,99.90
2018-12-24T20:57:06.321Z,99.90
2018-12-24T20:59:48.389Z,99.90
2018-12-24T21:02:19.374Z,99.90
2018-12-24T21:04:50.541Z,99.90
2018-12-24T21:07:21.137Z,99.90
2018-12-24T21:09:52.200Z,99.90
2018-12-24T21:12:23.345Z,99.90
2018-12-24T21:14:54.481Z,99.90
2018-12-24T21:17:25.301Z,99.90
2018-12-24T21:19:56.168Z,99.90
2018-12-24T21:22:26.969Z,99.90
2018-12-24T21:24:57.707Z,99.90
2018-12-24T21:27:28.855Z,99.90
2018-12-24T21:29:59.790Z,99.90
2018-12-24T21:32:30.609Z,99.90
2018-12-24T21:35:01.813Z,99.90
2018-12-24T21:37:32.718Z,99.90
2018-12-24T21:40:03.517Z,99.90
2018-12-24T21:42:34.057Z,99.90
2018-12-24T21:45:05.347Z,99.90
2018-12-24T21:47:36.491Z,99.90
2018-12-24T21:50:07.460Z,99.90
2018-12-24T21:52:38.333Z,99.90
2018-12-24T21:55:09.408Z,99.90
2018-12-24T21:57:41.347Z,99.90
2018-12-24T22:00:12.350Z,99.90
2018-12-24T22:02:43.432Z,99.90
2018-12-24T22:05:17.693Z,99.90
2018-12-24T22:07:48.339Z,99.90
2018-12-24T22:10:19.333Z,99.90
2018-12-24T22:12:50.408Z,99.90
2018-12-24T22:15:21.156Z,99.90
2018-12-24T22:17:52.184Z,99.90
2018-12-24T22:20:23.378Z,99.90
2018-12-24T22:22:54.329Z,99.90
2018-12-24T22:25:25.513Z,99.90
2018-12-24T22:27:56.223Z,99.90
2018-12-24T22:30:27.701Z,99.90
2018-12-24T22:32:58.592Z,99.90
2018-12-24T22:35:29.418Z,99.90
2018-12-24T22:38:00.572Z,99.90
2018-12-24T22:40:31.352Z,99.90
2018-12-24T22:43:02.173Z,99.90
2018-12-24T22:45:32.697Z,99.90
2018-12-24T22:48:04.214Z,99.90
2018-12-24T22:50:34.978Z,99.90
2018-12-24T22:53:05.913Z,99.90
2018-12-24T22:55:37.061Z,99.90
2018-12-24T22:58:07.741Z,99.90
2018-12-24T23:00:48.037Z,99.90
2018-12-24T23:03:20.429Z,99.90
2018-12-24T23:05:51.500Z,99.90
2018-12-24T23:08:22.713Z,99.90
2018-12-24T23:10:53.758Z,99.90
2018-12-24T23:13:24.748Z,99.90
2018-12-24T23:15:55.541Z,99.90
2018-12-24T23:18:26.183Z,99.90
2018-12-24T23:20:56.892Z,99.90
2018-12-24T23:23:27.537Z,99.90
2018-12-24T23:25:58.529Z,99.90
2018-12-24T23:28:29.501Z,99.90
2018-12-24T23:31:00.250Z,99.90
2018-12-24T23:33:31.276Z,99.90
2018-12-24T23:36:01.973Z,99.90
2018-12-24T23:38:32.563Z,99.90
2018-12-24T23:41:03.378Z,99.90
2018-12-24T23:43:34.732Z,99.90
2018-12-24T23:46:05.868Z,99.90
2018-12-24T23:48:37.079Z,99.90
2018-12-24T23:51:07.623Z,99.90
2018-12-24T23:53:38.738Z,99.90
2018-12-24T23:56:09.833Z,99.90
2018-12-24T23:58:40.873Z,99.90
